Terminal Aerodrome Forecast
Issued by NWS

Current Version | Previous Version | Graphics & Text | Print | Product List | Glossary On
Versions: 1 2 3 4 5 6 7 8 9 10 11 12 13 14 15 16 17 18 19 20 21 22
892
FTUS41 KILN 141138
TAFLUK
TAF
KLUK 141138Z 1412/1512 12004KT P6SM VCSH SCT080 OVC130
     FM141800 17006KT P6SM SCT130 BKN250
     FM150100 00000KT P6SM SCT130
     FM150400 00000KT 4SM BR SCT110
     FM150800 00000KT 1SM BR SCT090=

USA.gov is the U.S. government's official web portal to all federal, state and local government web resources and services.